Terminal Aerodrome Forecast
Issued by NWS Bismarck, ND

Home | Current Version | Previous Version | Graphics & Text | Print | Product List | Glossary On
Versions: 1 2 3 4 5 6 7 8 9 10 11 12 13 14 15 16 17 18 19 20 21
000
FTUS43 KBIS 181600 AAC
TAFISN
TAF AMD
KISN 181617Z 1816/1912 30011KT P6SM BKN025
     FM181700 32010G18KT P6SM BKN040
     FM182300 33005KT P6SM SCT040=

USA.gov is the U.S. government's official web portal to all federal, state and local government web resources and services.